sensor_id;sensor_type;location;lat;lon;timestamp;pressure;altitude;pressure_sealevel;temperature;humidity
58991;BME280;44781;53.444;14.476;2023-04-05T00:00:04;102378.87;;;2.99;53.56
58991;BME280;44781;53.444;14.476;2023-04-05T00:02:57;102376.81;;;2.97;53.65
58991;BME280;44781;53.444;14.476;2023-04-05T00:05:28;102376.85;;;2.96;53.69
58991;BME280;44781;53.444;14.476;2023-04-05T00:07:56;102378.79;;;2.94;53.82
58991;BME280;44781;53.444;14.476;2023-04-05T00:10:27;102373.22;;;2.93;53.92
58991;BME280;44781;53.444;14.476;2023-04-05T00:12:54;102372.89;;;2.92;53.97
58991;BME280;44781;53.444;14.476;2023-04-05T00:15:21;102370.29;;;2.91;54.11
58991;BME280;44781;53.444;14.476;2023-04-05T00:17:48;102358.90;;;2.84;54.20
58991;BME280;44781;53.444;14.476;2023-04-05T00:20:16;102368.71;;;2.92;54.27
58991;BME280;44781;53.444;14.476;2023-04-05T00:22:43;102373.42;;;2.92;54.39
58991;BME280;44781;53.444;14.476;2023-04-05T00:25:14;102373.06;;;2.93;54.42
58991;BME280;44781;53.444;14.476;2023-04-05T00:27:44;102373.92;;;2.94;54.41
58991;BME280;44781;53.444;14.476;2023-04-05T00:30:12;102371.98;;;2.95;54.46
58991;BME280;44781;53.444;14.476;2023-04-05T00:32:47;102368.66;;;2.95;54.67
58991;BME280;44781;53.444;14.476;2023-04-05T00:35:16;102365.34;;;2.94;54.59
58991;BME280;44781;53.444;14.476;2023-04-05T00:37:46;102361.82;;;2.96;54.70
58991;BME280;44781;53.444;14.476;2023-04-05T00:40:13;102362.49;;;2.97;54.69
58991;BME280;44781;53.444;14.476;2023-04-05T00:42:40;102359.36;;;2.97;54.83
58991;BME280;44781;53.444;14.476;2023-04-05T00:45:08;102363.89;;;2.98;54.87
58991;BME280;44781;53.444;14.476;2023-04-05T00:47:35;102365.61;;;2.99;54.95
58991;BME280;44781;53.444;14.476;2023-04-05T00:50:04;102364.72;;;3.00;55.05
58991;BME280;44781;53.444;14.476;2023-04-05T00:52:32;102360.89;;;2.99;55.10
58991;BME280;44781;53.444;14.476;2023-04-05T00:55:00;102362.80;;;3.00;55.09
58991;BME280;44781;53.444;14.476;2023-04-05T00:57:28;102363.66;;;3.01;55.10
58991;BME280;44781;53.444;14.476;2023-04-05T00:59:58;102360.67;;;3.01;55.10
58991;BME280;44781;53.444;14.476;2023-04-05T01:02:32;102361.20;;;3.02;55.05
58991;BME280;44781;53.444;14.476;2023-04-05T01:05:37;102358.92;;;3.02;55.13
58991;BME280;44781;53.444;14.476;2023-04-05T01:08:15;102359.46;;;3.00;55.23
58991;BME280;44781;53.444;14.476;2023-04-05T01:10:55;102358.26;;;3.00;55.21
58991;BME280;44781;53.444;14.476;2023-04-05T01:13:25;102356.38;;;2.98;55.17
58991;BME280;44781;53.444;14.476;2023-04-05T01:15:52;102360.91;;;2.98;55.16
58991;BME280;44781;53.444;14.476;2023-04-05T01:18:20;102364.23;;;2.98;55.25
58991;BME280;44781;53.444;14.476;2023-04-05T01:20:51;102359.05;;;2.95;55.26
58991;BME280;44781;53.444;14.476;2023-04-05T01:26:31;102354.73;;;2.92;55.41
58991;BME280;44781;53.444;14.476;2023-04-05T01:31:45;102357.09;;;2.88;55.71
58991;BME280;44781;53.444;14.476;2023-04-05T01:34:25;102350.50;;;2.85;55.89
58991;BME280;44781;53.444;14.476;2023-04-05T01:37:01;102343.05;;;2.82;55.99
58991;BME280;44781;53.444;14.476;2023-04-05T01:39:34;102340.98;;;2.81;55.94
58991;BME280;44781;53.444;14.476;2023-04-05T01:42:02;102345.17;;;2.80;56.02
58991;BME280;44781;53.444;14.476;2023-04-05T01:44:30;102345.19;;;2.80;56.07
58991;BME280;44781;53.444;14.476;2023-04-05T01:46:58;102344.83;;;2.80;56.14
58991;BME280;44781;53.444;14.476;2023-04-05T01:49:25;102346.77;;;2.80;56.28
58991;BME280;44781;53.444;14.476;2023-04-05T01:51:53;102346.09;;;2.79;56.26
58991;BME280;44781;53.444;14.476;2023-04-05T01:54:21;102345.92;;;2.78;56.29
58991;BME280;44781;53.444;14.476;2023-04-05T01:56:48;102346.46;;;2.77;56.35
58991;BME280;44781;53.444;14.476;2023-04-05T01:59:19;102350.84;;;2.76;56.46
58991;BME280;44781;53.444;14.476;2023-04-05T02:01:47;102348.96;;;2.74;56.57
58991;BME280;44781;53.444;14.476;2023-04-05T02:04:15;102349.52;;;2.72;56.62
58991;BME280;44781;53.444;14.476;2023-04-05T02:06:42;102348.34;;;2.70;56.47
58991;BME280;44781;53.444;14.476;2023-04-05T02:09:09;102346.45;;;2.68;56.64
58991;BME280;44781;53.444;14.476;2023-04-05T02:11:58;102348.58;;;2.66;56.86
58991;BME280;44781;53.444;14.476;2023-04-05T02:14:28;102353.48;;;2.66;56.95
58991;BME280;44781;53.444;14.476;2023-04-05T02:16:59;102358.18;;;2.65;56.96
58991;BME280;44781;53.444;14.476;2023-04-05T02:19:29;102359.08;;;2.64;57.04
58991;BME280;44781;53.444;14.476;2023-04-05T02:22:02;102359.09;;;2.64;57.08
58991;BME280;44781;53.444;14.476;2023-04-05T02:24:30;102358.76;;;2.63;57.28
58991;BME280;44781;53.444;14.476;2023-04-05T02:26:57;102356.33;;;2.62;57.47
58991;BME280;44781;53.444;14.476;2023-04-05T02:29:25;102351.80;;;2.61;57.60
58991;BME280;44781;53.444;14.476;2023-04-05T02:31:52;102348.69;;;2.60;57.93
58991;BME280;44781;53.444;14.476;2023-04-05T02:34:19;102347.50;;;2.58;57.93
58991;BME280;44781;53.444;14.476;2023-04-05T02:36:50;102352.06;;;2.57;57.93
58991;BME280;44781;53.444;14.476;2023-04-05T02:39:17;102350.87;;;2.55;57.96
58991;BME280;44781;53.444;14.476;2023-04-05T02:41:45;102349.83;;;2.54;58.08
58991;BME280;44781;53.444;14.476;2023-04-05T02:44:15;102342.16;;;2.53;58.23
58991;BME280;44781;53.444;14.476;2023-04-05T02:46:44;102339.27;;;2.49;58.52
58991;BME280;44781;53.444;14.476;2023-04-05T02:49:15;102341.70;;;2.50;58.76
58991;BME280;44781;53.444;14.476;2023-04-05T02:51:42;102341.99;;;2.52;58.68
58991;BME280;44781;53.444;14.476;2023-04-05T02:54:10;102343.14;;;2.58;58.72
58991;BME280;44781;53.444;14.476;2023-04-05T02:56:37;102343.39;;;2.64;58.65
58991;BME280;44781;53.444;14.476;2023-04-05T02:59:11;102343.27;;;2.70;58.64
58991;BME280;44781;53.444;14.476;2023-04-05T03:01:41;102347.38;;;2.75;58.69
58991;BME280;44781;53.444;14.476;2023-04-05T03:04:10;102350.95;;;2.79;58.64
58991;BME280;44781;53.444;14.476;2023-04-05T03:06:39;102351.58;;;2.84;58.53
58991;BME280;44781;53.444;14.476;2023-04-05T03:09:12;102348.77;;;2.85;58.49
58991;BME280;44781;53.444;14.476;2023-04-05T03:11:40;102351.72;;;2.86;58.45
58991;BME280;44781;53.444;14.476;2023-04-05T03:14:07;102346.45;;;2.87;58.44
58991;BME280;44781;53.444;14.476;2023-04-05T03:16:41;102337.41;;;2.85;58.42
58991;BME280;44781;53.444;14.476;2023-04-05T03:19:16;102338.48;;;2.84;58.36
58991;BME280;44781;53.444;14.476;2023-04-05T03:21:45;102332.92;;;2.82;58.44
58991;BME280;44781;53.444;14.476;2023-04-05T03:24:23;102329.67;;;2.79;58.44
58991;BME280;44781;53.444;14.476;2023-04-05T03:26:51;102327.98;;;2.76;58.46
58991;BME280;44781;53.444;14.476;2023-04-05T03:29:20;102328.75;;;2.72;58.40
58991;BME280;44781;53.444;14.476;2023-04-05T03:31:49;102328.32;;;2.66;58.54
58991;BME280;44781;53.444;14.476;2023-04-05T03:34:20;102328.22;;;2.63;58.61
58991;BME280;44781;53.444;14.476;2023-04-05T03:36:50;102323.71;;;2.61;58.65
58991;BME280;44781;53.444;14.476;2023-04-05T03:39:34;102321.30;;;2.59;58.64
58991;BME280;44781;53.444;14.476;2023-04-05T03:42:02;102324.15;;;2.56;58.70
58991;BME280;44781;53.444;14.476;2023-04-05T03:44:30;102325.06;;;2.54;58.71
58991;BME280;44781;53.444;14.476;2023-04-05T03:46:59;102320.02;;;2.53;58.72
58991;BME280;44781;53.444;14.476;2023-04-05T03:49:46;102323.17;;;2.52;58.80
58991;BME280;44781;53.444;14.476;2023-04-05T03:52:14;102321.95;;;2.51;58.93
58991;BME280;44781;53.444;14.476;2023-04-05T03:55:05;102324.42;;;2.50;58.85
58991;BME280;44781;53.444;14.476;2023-04-05T03:57:34;102324.61;;;2.49;58.91
58991;BME280;44781;53.444;14.476;2023-04-05T04:00:12;102324.45;;;2.49;59.01
58991;BME280;44781;53.444;14.476;2023-04-05T04:02:50;102322.01;;;2.49;58.98
58991;BME280;44781;53.444;14.476;2023-04-05T04:05:21;102322.52;;;2.49;59.09
58991;BME280;44781;53.444;14.476;2023-04-05T04:07:54;102316.77;;;2.48;59.00
58991;BME280;44781;53.444;14.476;2023-04-05T04:10:22;102320.27;;;2.48;58.96
58991;BME280;44781;53.444;14.476;2023-04-05T04:12:53;102323.23;;;2.48;59.02
58991;BME280;44781;53.444;14.476;2023-04-05T04:15:25;102319.05;;;2.48;58.93
58991;BME280;44781;53.444;14.476;2023-04-05T04:18:13;102320.27;;;2.48;59.13
58991;BME280;44781;53.444;14.476;2023-04-05T04:21:03;102321.70;;;2.46;59.20
58991;BME280;44781;53.444;14.476;2023-04-05T04:23:49;102321.73;;;2.45;59.11
58991;BME280;44781;53.444;14.476;2023-04-05T04:26:43;102315.11;;;2.43;59.26
58991;BME280;44781;53.444;14.476;2023-04-05T04:29:35;102312.18;;;2.42;59.30
58991;BME280;44781;53.444;14.476;2023-04-05T04:32:30;102315.38;;;2.39;59.40
58991;BME280;44781;53.444;14.476;2023-04-05T04:35:40;102324.48;;;2.36;59.50
58991;BME280;44781;53.444;14.476;2023-04-05T04:38:16;102329.05;;;2.35;59.54
58991;BME280;44781;53.444;14.476;2023-04-05T04:41:30;102330.45;;;2.34;59.58
58991;BME280;44781;53.444;14.476;2023-04-05T04:44:32;102330.10;;;2.34;59.64
58991;BME280;44781;53.444;14.476;2023-04-05T04:47:21;102333.96;;;2.33;59.77
58991;BME280;44781;53.444;14.476;2023-04-05T04:50:19;102332.77;;;2.31;59.73
58991;BME280;44781;53.444;14.476;2023-04-05T04:52:46;102338.84;;;2.33;59.72
58991;BME280;44781;53.444;14.476;2023-04-05T04:55:14;102339.65;;;2.36;59.76
58991;BME280;44781;53.444;14.476;2023-04-05T04:57:42;102337.85;;;2.41;59.72
58991;BME280;44781;53.444;14.476;2023-04-05T05:00:17;102337.40;;;2.46;59.72
58991;BME280;44781;53.444;14.476;2023-04-05T05:02:45;102332.77;;;2.51;59.66
58991;BME280;44781;53.444;14.476;2023-04-05T05:05:17;102338.09;;;2.57;59.56
58991;BME280;44781;53.444;14.476;2023-04-05T05:07:48;102319.84;;;2.53;59.47
58991;BME280;44781;53.444;14.476;2023-04-05T05:10:17;102332.20;;;2.64;59.35
58991;BME280;44781;53.444;14.476;2023-04-05T05:12:50;102334.44;;;2.67;59.22
58991;BME280;44781;53.444;14.476;2023-04-05T05:15:21;102339.29;;;2.68;59.13
58991;BME280;44781;53.444;14.476;2023-04-05T05:17:54;102343.99;;;2.68;59.02
58991;BME280;44781;53.444;14.476;2023-04-05T05:20:21;102339.28;;;2.68;58.95
58991;BME280;44781;53.444;14.476;2023-04-05T05:22:51;102339.98;;;2.68;58.85
58991;BME280;44781;53.444;14.476;2023-04-05T05:25:24;102340.85;;;2.68;58.81
58991;BME280;44781;53.444;14.476;2023-04-05T05:28:38;102340.33;;;2.68;58.80
58991;BME280;44781;53.444;14.476;2023-04-05T05:31:47;102343.30;;;2.68;58.77
58991;BME280;44781;53.444;14.476;2023-04-05T05:34:27;102346.27;;;2.68;58.79
58991;BME280;44781;53.444;14.476;2023-04-05T05:37:11;102346.27;;;2.68;58.76
58991;BME280;44781;53.444;14.476;2023-04-05T05:39:39;102342.27;;;2.68;58.75
58991;BME280;44781;53.444;14.476;2023-04-05T05:42:11;102341.58;;;2.68;58.61
58991;BME280;44781;53.444;14.476;2023-04-05T05:44:38;102345.24;;;2.67;58.66
58991;BME280;44781;53.444;14.476;2023-04-05T05:47:08;102345.96;;;2.66;58.69
58991;BME280;44781;53.444;14.476;2023-04-05T05:49:36;102347.70;;;2.66;58.69
58991;BME280;44781;53.444;14.476;2023-04-05T05:52:17;102349.45;;;2.66;58.66
58991;BME280;44781;53.444;14.476;2023-04-05T05:54:45;102349.98;;;2.66;58.63
58991;BME280;44781;53.444;14.476;2023-04-05T05:57:13;102354.86;;;2.66;58.57
58991;BME280;44781;53.444;14.476;2023-04-05T05:59:40;102352.40;;;2.67;58.65
58991;BME280;44781;53.444;14.476;2023-04-05T06:02:08;102352.71;;;2.68;58.79
58991;BME280;44781;53.444;14.476;2023-04-05T06:04:36;102352.34;;;2.70;58.73
58991;BME280;44781;53.444;14.476;2023-04-05T06:07:04;102349.53;;;2.72;58.68
58991;BME280;44781;53.444;14.476;2023-04-05T06:09:32;102343.23;;;2.73;58.55
58991;BME280;44781;53.444;14.476;2023-04-05T06:12:02;102343.55;;;2.74;58.49
58991;BME280;44781;53.444;14.476;2023-04-05T06:14:29;102345.63;;;2.75;58.51
58991;BME280;44781;53.444;14.476;2023-04-05T06:16:58;102345.23;;;2.77;58.41
58991;BME280;44781;53.444;14.476;2023-04-05T06:19:27;102343.11;;;2.79;58.47
58991;BME280;44781;53.444;14.476;2023-04-05T06:21:54;102342.37;;;2.81;58.50
58991;BME280;44781;53.444;14.476;2023-04-05T06:24:22;102343.91;;;2.83;58.54
58991;BME280;44781;53.444;14.476;2023-04-05T06:26:52;102344.04;;;2.86;58.63
58991;BME280;44781;53.444;14.476;2023-04-05T06:29:19;102344.17;;;2.88;58.65
58991;BME280;44781;53.444;14.476;2023-04-05T06:31:48;102343.30;;;2.88;58.47
58991;BME280;44781;53.444;14.476;2023-04-05T06:34:17;102340.17;;;2.87;58.26
58991;BME280;44781;53.444;14.476;2023-04-05T06:36:46;102340.89;;;2.86;58.18
58991;BME280;44781;53.444;14.476;2023-04-05T06:39:13;102343.83;;;2.87;58.09
58991;BME280;44781;53.444;14.476;2023-04-05T06:41:41;102343.81;;;2.88;58.01
58991;BME280;44781;53.444;14.476;2023-04-05T06:44:09;102343.26;;;2.90;58.05
58991;BME280;44781;53.444;14.476;2023-04-05T06:46:36;102344.44;;;2.92;58.07
58991;BME280;44781;53.444;14.476;2023-04-05T06:49:03;102341.06;;;2.95;58.12
58991;BME280;44781;53.444;14.476;2023-04-05T06:51:34;102338.92;;;2.98;58.10
58991;BME280;44781;53.444;14.476;2023-04-05T06:54:01;102344.61;;;3.01;58.31
58991;BME280;44781;53.444;14.476;2023-04-05T06:56:31;102344.02;;;3.05;58.58
58991;BME280;44781;53.444;14.476;2023-04-05T06:59:00;102336.98;;;3.08;58.65
58991;BME280;44781;53.444;14.476;2023-04-05T07:01:29;102337.09;;;3.11;58.83
58991;BME280;44781;53.444;14.476;2023-04-05T07:03:56;102336.14;;;3.15;59.05
58991;BME280;44781;53.444;14.476;2023-04-05T07:06:23;102336.44;;;3.18;59.14
58991;BME280;44781;53.444;14.476;2023-04-05T07:08:51;102332.17;;;3.22;59.08
58991;BME280;44781;53.444;14.476;2023-04-05T07:11:28;102332.27;;;3.25;58.93
58991;BME280;44781;53.444;14.476;2023-04-05T07:17:40;102333.87;;;3.32;58.62
58991;BME280;44781;53.444;14.476;2023-04-05T07:20:08;102333.62;;;3.36;58.53
58991;BME280;44781;53.444;14.476;2023-04-05T07:22:36;102334.27;;;3.39;58.24
58991;BME280;44781;53.444;14.476;2023-04-05T07:25:04;102334.91;;;3.41;58.15
58991;BME280;44781;53.444;14.476;2023-04-05T07:27:31;102337.64;;;3.44;58.04
58991;BME280;44781;53.444;14.476;2023-04-05T07:29:59;102334.98;;;3.47;57.85
58991;BME280;44781;53.444;14.476;2023-04-05T07:32:26;102331.59;;;3.50;57.66
58991;BME280;44781;53.444;14.476;2023-04-05T07:34:53;102327.66;;;3.53;57.48
58991;BME280;44781;53.444;14.476;2023-04-05T07:37:22;102332.19;;;3.54;57.18
58991;BME280;44781;53.444;14.476;2023-04-05T07:39:50;102326.20;;;3.56;57.19
58991;BME280;44781;53.444;14.476;2023-04-05T07:42:17;102322.64;;;3.59;57.20
58991;BME280;44781;53.444;14.476;2023-04-05T07:44:47;102315.56;;;3.63;57.26
58991;BME280;44781;53.444;14.476;2023-04-05T07:47:14;102317.41;;;3.67;57.19
58991;BME280;44781;53.444;14.476;2023-04-05T07:49:42;102323.42;;;3.71;57.14
58991;BME280;44781;53.444;14.476;2023-04-05T07:52:10;102321.23;;;3.76;57.08
58991;BME280;44781;53.444;14.476;2023-04-05T07:54:37;102322.36;;;3.80;56.84
58991;BME280;44781;53.444;14.476;2023-04-05T07:57:05;102325.30;;;3.81;56.46
58991;BME280;44781;53.444;14.476;2023-04-05T07:59:33;102327.51;;;3.84;56.27
58991;BME280;44781;53.444;14.476;2023-04-05T08:02:04;102326.73;;;3.88;56.02
58991;BME280;44781;53.444;14.476;2023-04-05T08:04:31;102326.46;;;3.91;55.90
58991;BME280;44781;53.444;14.476;2023-04-05T08:06:59;102326.21;;;3.94;55.71
58991;BME280;44781;53.444;14.476;2023-04-05T08:09:26;102325.45;;;3.97;55.50
58991;BME280;44781;53.444;14.476;2023-04-05T08:11:53;102325.18;;;4.01;55.59
58991;BME280;44781;53.444;14.476;2023-04-05T08:14:20;102322.98;;;4.05;55.75
58991;BME280;44781;53.444;14.476;2023-04-05T08:16:48;102324.45;;;4.09;55.64
58991;BME280;44781;53.444;14.476;2023-04-05T08:19:16;102322.80;;;4.12;54.80
58991;BME280;44781;53.444;14.476;2023-04-05T08:21:44;102322.57;;;4.16;54.30
58991;BME280;44781;53.444;14.476;2023-04-05T08:24:11;102327.20;;;4.19;53.78
58991;BME280;44781;53.444;14.476;2023-04-05T08:26:38;102322.77;;;4.22;53.37
58991;BME280;44781;53.444;14.476;2023-04-05T08:29:07;102324.80;;;4.25;53.06
58991;BME280;44781;53.444;14.476;2023-04-05T08:31:35;102323.14;;;4.28;53.18
58991;BME280;44781;53.444;14.476;2023-04-05T08:34:03;102320.23;;;4.32;53.08
58991;BME280;44781;53.444;14.476;2023-04-05T08:36:31;102317.30;;;4.37;52.95
58991;BME280;44781;53.444;14.476;2023-04-05T08:38:59;102314.87;;;4.44;52.54
58991;BME280;44781;53.444;14.476;2023-04-05T08:41:34;102313.34;;;4.49;52.43
58991;BME280;44781;53.444;14.476;2023-04-05T08:44:03;102313.08;;;4.52;52.20
58991;BME280;44781;53.444;14.476;2023-04-05T08:46:32;102310.01;;;4.56;51.97
58991;BME280;44781;53.444;14.476;2023-04-05T08:49:07;102312.20;;;4.60;52.19
58991;BME280;44781;53.444;14.476;2023-04-05T08:51:37;102312.94;;;4.64;52.50
58991;BME280;44781;53.444;14.476;2023-04-05T08:54:07;102314.19;;;4.70;52.68
58991;BME280;44781;53.444;14.476;2023-04-05T08:56:35;102308.07;;;4.76;53.00
58991;BME280;44781;53.444;14.476;2023-04-05T08:59:06;102310.02;;;4.82;52.38
58991;BME280;44781;53.444;14.476;2023-04-05T09:01:41;102311.98;;;4.86;51.81
58991;BME280;44781;53.444;14.476;2023-04-05T09:04:15;102305.23;;;4.91;51.36
58991;BME280;44781;53.444;14.476;2023-04-05T09:06:43;102295.00;;;4.93;51.10
58991;BME280;44781;53.444;14.476;2023-04-05T09:09:13;102297.65;;;4.99;51.14
58991;BME280;44781;53.444;14.476;2023-04-05T09:11:42;102300.41;;;5.06;50.78
58991;BME280;44781;53.444;14.476;2023-04-05T09:14:10;102296.25;;;5.11;50.86
58991;BME280;44781;53.444;14.476;2023-04-05T09:16:38;102294.87;;;5.16;50.95
58991;BME280;44781;53.444;14.476;2023-04-05T09:19:07;102297.50;;;5.22;50.76
58991;BME280;44781;53.444;14.476;2023-04-05T09:21:57;102294.16;;;5.29;50.65
58991;BME280;44781;53.444;14.476;2023-04-05T09:24:35;102292.58;;;5.35;50.15
58991;BME280;44781;53.444;14.476;2023-04-05T09:27:15;102288.39;;;5.40;49.86
58991;BME280;44781;53.444;14.476;2023-04-05T09:29:46;102289.14;;;5.44;49.60
58991;BME280;44781;53.444;14.476;2023-04-05T09:32:15;102289.34;;;5.49;49.64
58991;BME280;44781;53.444;14.476;2023-04-05T09:34:44;102291.12;;;5.54;49.42
58991;BME280;44781;53.444;14.476;2023-04-05T09:37:32;102289.39;;;5.59;49.00
58991;BME280;44781;53.444;14.476;2023-04-05T09:40:04;102288.77;;;5.62;48.89
58991;BME280;44781;53.444;14.476;2023-04-05T09:42:42;102285.18;;;5.65;48.74
58991;BME280;44781;53.444;14.476;2023-04-05T09:45:13;102284.86;;;5.69;48.63
58991;BME280;44781;53.444;14.476;2023-04-05T09:47:55;102284.49;;;5.75;48.85
58991;BME280;44781;53.444;14.476;2023-04-05T09:50:29;102285.63;;;5.84;49.36
58991;BME280;44781;53.444;14.476;2023-04-05T09:53:16;102277.77;;;5.95;49.08
58991;BME280;44781;53.444;14.476;2023-04-05T09:55:47;102275.04;;;6.04;48.97
58991;BME280;44781;53.444;14.476;2023-04-05T09:58:18;102274.70;;;6.14;48.99
58991;BME280;44781;53.444;14.476;2023-04-05T10:00:50;102275.01;;;6.20;48.33
58991;BME280;44781;53.444;14.476;2023-04-05T10:10:16;102272.02;;;6.36;47.94
58991;BME280;44781;53.444;14.476;2023-04-05T10:12:44;102272.39;;;6.41;47.73
58991;BME280;44781;53.444;14.476;2023-04-05T10:15:22;102269.40;;;6.46;48.01
58991;BME280;44781;53.444;14.476;2023-04-05T10:18:13;102270.70;;;6.54;48.21
58991;BME280;44781;53.444;14.476;2023-04-05T10:21:14;102267.87;;;6.64;48.12
58991;BME280;44781;53.444;14.476;2023-04-05T10:23:45;102259.56;;;6.76;48.53
58991;BME280;44781;53.444;14.476;2023-04-05T10:26:26;102259.83;;;6.88;48.46
58991;BME280;44781;53.444;14.476;2023-04-05T10:29:02;102261.26;;;7.02;48.27
58991;BME280;44781;53.444;14.476;2023-04-05T10:32:09;102262.38;;;7.14;47.95
58991;BME280;44781;53.444;14.476;2023-04-05T10:34:56;102257.76;;;7.25;47.24
58991;BME280;44781;53.444;14.476;2023-04-05T10:37:40;102258.72;;;7.32;46.65
58991;BME280;44781;53.444;14.476;2023-04-05T10:40:09;102257.68;;;7.36;46.13
58991;BME280;44781;53.444;14.476;2023-04-05T10:42:42;102257.40;;;7.38;45.78
58991;BME280;44781;53.444;14.476;2023-04-05T10:45:13;102252.21;;;7.41;46.04
58991;BME280;44781;53.444;14.476;2023-04-05T10:47:56;102247.02;;;7.43;46.10
58991;BME280;44781;53.444;14.476;2023-04-05T10:51:10;102247.88;;;7.44;45.36
58991;BME280;44781;53.444;14.476;2023-04-05T10:53:56;102249.66;;;7.43;45.13
58991;BME280;44781;53.444;14.476;2023-04-05T10:56:35;102245.39;;;7.44;45.10
58991;BME280;44781;53.444;14.476;2023-04-05T10:59:15;102244.05;;;7.47;45.12
58991;BME280;44781;53.444;14.476;2023-04-05T11:02:24;102240.92;;;7.51;44.91
58991;BME280;44781;53.444;14.476;2023-04-05T11:05:04;102240.38;;;7.56;44.76
58991;BME280;44781;53.444;14.476;2023-04-05T11:07:44;102236.02;;;7.59;44.92
58991;BME280;44781;53.444;14.476;2023-04-05T11:10:16;102235.16;;;7.63;44.83
58991;BME280;44781;53.444;14.476;2023-04-05T11:21:18;102230.56;;;7.59;43.84
58991;BME280;44781;53.444;14.476;2023-04-05T11:24:10;102218.86;;;7.52;43.86
58991;BME280;44781;53.444;14.476;2023-04-05T11:27:15;102215.57;;;7.52;43.77
58991;BME280;44781;53.444;14.476;2023-04-05T11:29:56;102226.14;;;7.64;43.76
58991;BME280;44781;53.444;14.476;2023-04-05T11:32:41;102218.16;;;7.70;43.61
58991;BME280;44781;53.444;14.476;2023-04-05T11:35:18;102217.48;;;7.78;43.75
58991;BME280;44781;53.444;14.476;2023-04-05T11:40:36;102211.04;;;8.02;43.71
58991;BME280;44781;53.444;14.476;2023-04-05T11:43:12;102209.92;;;8.16;43.85
58991;BME280;44781;53.444;14.476;2023-04-05T11:45:42;102209.67;;;8.26;43.08
58991;BME280;44781;53.444;14.476;2023-04-05T11:48:12;102203.80;;;8.35;42.86
58991;BME280;44781;53.444;14.476;2023-04-05T11:50:44;102199.92;;;8.44;42.90
58991;BME280;44781;53.444;14.476;2023-04-05T11:53:21;102200.73;;;8.54;42.66
58991;BME280;44781;53.444;14.476;2023-04-05T11:55:50;102199.91;;;8.64;42.30
58991;BME280;44781;53.444;14.476;2023-04-05T11:58:22;102200.52;;;8.74;42.41
58991;BME280;44781;53.444;14.476;2023-04-05T12:00:58;102206.05;;;8.81;41.78
58991;BME280;44781;53.444;14.476;2023-04-05T12:03:27;102203.77;;;8.84;41.81
58991;BME280;44781;53.444;14.476;2023-04-05T12:06:00;102197.96;;;8.88;41.86
58991;BME280;44781;53.444;14.476;2023-04-05T12:11:35;102200.50;;;8.90;40.96
58991;BME280;44781;53.444;14.476;2023-04-05T12:14:09;102186.41;;;8.86;41.08
58991;BME280;44781;53.444;14.476;2023-04-05T12:17:15;102190.70;;;8.93;41.11
58991;BME280;44781;53.444;14.476;2023-04-05T12:19:44;102194.11;;;8.95;40.74
58991;BME280;44781;53.444;14.476;2023-04-05T12:22:12;102188.77;;;8.96;41.10
58991;BME280;44781;53.444;14.476;2023-04-05T12:27:55;102181.40;;;9.03;40.73
58991;BME280;44781;53.444;14.476;2023-04-05T12:30:59;102180.05;;;9.05;40.61
58991;BME280;44781;53.444;14.476;2023-04-05T12:33:40;102179.11;;;9.07;40.69
58991;BME280;44781;53.444;14.476;2023-04-05T12:36:15;102178.89;;;9.07;40.30
58991;BME280;44781;53.444;14.476;2023-04-05T12:38:43;102174.11;;;9.08;40.29
58991;BME280;44781;53.444;14.476;2023-04-05T12:41:13;102173.55;;;9.08;40.32
58991;BME280;44781;53.444;14.476;2023-04-05T12:43:41;102165.88;;;9.07;40.07
58991;BME280;44781;53.444;14.476;2023-04-05T12:46:46;102170.15;;;9.10;40.27
58991;BME280;44781;53.444;14.476;2023-04-05T12:49:17;102168.33;;;9.11;40.20
58991;BME280;44781;53.444;14.476;2023-04-05T12:51:48;102172.25;;;9.14;40.35
58991;BME280;44781;53.444;14.476;2023-04-05T12:54:20;102170.45;;;9.18;40.61
58991;BME280;44781;53.444;14.476;2023-04-05T12:56:56;102168.18;;;9.25;40.93
58991;BME280;44781;53.444;14.476;2023-04-05T12:59:32;102166.20;;;9.37;40.91
58991;BME280;44781;53.444;14.476;2023-04-05T13:02:07;102160.07;;;9.51;40.34
58991;BME280;44781;53.444;14.476;2023-04-05T13:04:38;102162.94;;;9.64;40.71
58991;BME280;44781;53.444;14.476;2023-04-05T13:07:13;102161.98;;;9.76;40.21
58991;BME280;44781;53.444;14.476;2023-04-05T13:09:45;102162.62;;;9.84;39.61
58991;BME280;44781;53.444;14.476;2023-04-05T13:12:16;102157.16;;;9.88;39.43
58991;BME280;44781;53.444;14.476;2023-04-05T13:14:44;102157.30;;;9.89;39.23
58991;BME280;44781;53.444;14.476;2023-04-05T13:17:37;102157.23;;;9.86;38.82
58991;BME280;44781;53.444;14.476;2023-04-05T13:20:45;102155.75;;;9.80;38.54
58991;BME280;44781;53.444;14.476;2023-04-05T13:27:41;102147.59;;;9.64;38.43
58991;BME280;44781;53.444;14.476;2023-04-05T13:48:35;102136.96;;;9.89;37.73
58991;BME280;44781;53.444;14.476;2023-04-05T13:51:17;102136.16;;;9.98;36.83
58991;BME280;44781;53.444;14.476;2023-04-05T13:54:30;102134.61;;;9.87;36.92
58991;BME280;44781;53.444;14.476;2023-04-05T13:57:17;102119.20;;;9.74;37.05
58991;BME280;44781;53.444;14.476;2023-04-05T14:00:01;102130.60;;;9.76;36.87
58991;BME280;44781;53.444;14.476;2023-04-05T14:03:03;102127.86;;;9.67;36.88
58991;BME280;44781;53.444;14.476;2023-04-05T14:05:42;102124.58;;;9.58;36.76
58991;BME280;44781;53.444;14.476;2023-04-05T14:15:32;102113.89;;;9.68;37.25
58991;BME280;44781;53.444;14.476;2023-04-05T14:27:10;102097.62;;;10.33;37.85
58991;BME280;44781;53.444;14.476;2023-04-05T14:30:56;102098.23;;;10.48;37.55
58991;BME280;44781;53.444;14.476;2023-04-05T15:05:46;102084.95;;;11.66;34.74
58991;BME280;44781;53.444;14.476;2023-04-05T15:20:58;102093.16;;;10.79;34.84
58991;BME280;44781;53.444;14.476;2023-04-05T15:31:42;102086.57;;;10.28;35.23